sensor_id;sensor_type;location;lat;lon;timestamp;temperature;humidity
74657;DHT22;63185;45.642;13.764;2023-06-26T00:00:24;27.10;42.10
74657;DHT22;63185;45.642;13.764;2023-06-26T00:02:49;27.10;42.30
74657;DHT22;63185;45.642;13.764;2023-06-26T00:05:15;27.20;42.60
74657;DHT22;63185;45.642;13.764;2023-06-26T00:07:41;27.10;42.70
74657;DHT22;63185;45.642;13.764;2023-06-26T00:10:06;27.10;42.30
74657;DHT22;63185;45.642;13.764;2023-06-26T00:12:32;27.10;42.70
74657;DHT22;63185;45.642;13.764;2023-06-26T00:14:58;27.00;42.70
74657;DHT22;63185;45.642;13.764;2023-06-26T00:17:24;27.00;42.60
74657;DHT22;63185;45.642;13.764;2023-06-26T00:19:49;27.10;42.30
74657;DHT22;63185;45.642;13.764;2023-06-26T00:22:15;27.10;42.50
74657;DHT22;63185;45.642;13.764;2023-06-26T00:24:41;27.10;42.50
74657;DHT22;63185;45.642;13.764;2023-06-26T00:27:06;27.10;42.50
74657;DHT22;63185;45.642;13.764;2023-06-26T00:29:32;27.10;42.20
74657;DHT22;63185;45.642;13.764;2023-06-26T00:31:58;27.10;42.90
74657;DHT22;63185;45.642;13.764;2023-06-26T00:34:23;27.00;42.60
74657;DHT22;63185;45.642;13.764;2023-06-26T00:36:49;26.90;43.00
74657;DHT22;63185;45.642;13.764;2023-06-26T00:39:14;27.00;42.90
74657;DHT22;63185;45.642;13.764;2023-06-26T00:41:40;26.90;42.70
74657;DHT22;63185;45.642;13.764;2023-06-26T00:44:06;27.00;42.90
74657;DHT22;63185;45.642;13.764;2023-06-26T00:46:32;26.90;43.10
74657;DHT22;63185;45.642;13.764;2023-06-26T00:49:02;26.90;43.10
74657;DHT22;63185;45.642;13.764;2023-06-26T00:51:28;26.90;42.80
74657;DHT22;63185;45.642;13.764;2023-06-26T00:53:54;26.90;43.10
74657;DHT22;63185;45.642;13.764;2023-06-26T00:56:20;26.80;42.60
74657;DHT22;63185;45.642;13.764;2023-06-26T00:58:46;26.80;42.70
74657;DHT22;63185;45.642;13.764;2023-06-26T01:01:12;26.80;42.60
74657;DHT22;63185;45.642;13.764;2023-06-26T01:03:41;26.90;42.70
74657;DHT22;63185;45.642;13.764;2023-06-26T01:06:07;26.90;42.60
74657;DHT22;63185;45.642;13.764;2023-06-26T01:08:37;26.80;42.80
74657;DHT22;63185;45.642;13.764;2023-06-26T01:11:02;26.90;42.90
74657;DHT22;63185;45.642;13.764;2023-06-26T01:13:28;26.90;42.60
74657;DHT22;63185;45.642;13.764;2023-06-26T01:15:54;26.80;42.80
74657;DHT22;63185;45.642;13.764;2023-06-26T01:18:20;26.90;42.20
74657;DHT22;63185;45.642;13.764;2023-06-26T01:20:46;26.80;42.70
74657;DHT22;63185;45.642;13.764;2023-06-26T01:23:26;26.80;42.80
74657;DHT22;63185;45.642;13.764;2023-06-26T01:28:20;26.80;42.40
74657;DHT22;63185;45.642;13.764;2023-06-26T01:30:48;26.80;42.20
74657;DHT22;63185;45.642;13.764;2023-06-26T01:33:14;26.70;42.60
74657;DHT22;63185;45.642;13.764;2023-06-26T01:35:40;26.70;42.30
74657;DHT22;63185;45.642;13.764;2023-06-26T01:38:15;26.70;42.80
74657;DHT22;63185;45.642;13.764;2023-06-26T01:40:41;26.70;42.70
74657;DHT22;63185;45.642;13.764;2023-06-26T01:43:11;26.70;42.60
74657;DHT22;63185;45.642;13.764;2023-06-26T01:45:40;26.70;42.50
74657;DHT22;63185;45.642;13.764;2023-06-26T01:48:06;26.70;43.00
74657;DHT22;63185;45.642;13.764;2023-06-26T01:50:33;26.60;42.80
74657;DHT22;63185;45.642;13.764;2023-06-26T01:53:18;26.60;43.10
74657;DHT22;63185;45.642;13.764;2023-06-26T01:55:47;26.60;43.50
74657;DHT22;63185;45.642;13.764;2023-06-26T01:58:13;26.60;43.10
74657;DHT22;63185;45.642;13.764;2023-06-26T02:00:39;26.60;43.50
74657;DHT22;63185;45.642;13.764;2023-06-26T02:03:05;26.50;43.50
74657;DHT22;63185;45.642;13.764;2023-06-26T02:05:32;26.50;43.30
74657;DHT22;63185;45.642;13.764;2023-06-26T02:07:57;26.60;43.30
74657;DHT22;63185;45.642;13.764;2023-06-26T02:10:23;26.60;43.40
74657;DHT22;63185;45.642;13.764;2023-06-26T02:12:49;26.50;43.40
74657;DHT22;63185;45.642;13.764;2023-06-26T02:15:14;26.60;43.70
74657;DHT22;63185;45.642;13.764;2023-06-26T02:17:40;26.50;43.80
74657;DHT22;63185;45.642;13.764;2023-06-26T02:20:05;26.50;43.60
74657;DHT22;63185;45.642;13.764;2023-06-26T02:22:32;26.50;43.80
74657;DHT22;63185;45.642;13.764;2023-06-26T02:24:57;26.50;43.60
74657;DHT22;63185;45.642;13.764;2023-06-26T02:27:23;26.40;43.70
74657;DHT22;63185;45.642;13.764;2023-06-26T02:29:48;26.40;43.70
74657;DHT22;63185;45.642;13.764;2023-06-26T02:32:14;26.40;43.60
74657;DHT22;63185;45.642;13.764;2023-06-26T02:34:40;26.40;43.60
74657;DHT22;63185;45.642;13.764;2023-06-26T02:37:05;26.40;43.30
74657;DHT22;63185;45.642;13.764;2023-06-26T02:39:33;26.30;43.40
74657;DHT22;63185;45.642;13.764;2023-06-26T02:41:58;26.40;43.40
74657;DHT22;63185;45.642;13.764;2023-06-26T02:44:24;26.40;43.00
74657;DHT22;63185;45.642;13.764;2023-06-26T02:46:50;26.40;42.80
74657;DHT22;63185;45.642;13.764;2023-06-26T02:49:15;26.40;43.00
74657;DHT22;63185;45.642;13.764;2023-06-26T02:51:41;26.50;43.20
74657;DHT22;63185;45.642;13.764;2023-06-26T02:54:06;26.50;42.50
74657;DHT22;63185;45.642;13.764;2023-06-26T02:56:32;26.40;42.90
74657;DHT22;63185;45.642;13.764;2023-06-26T02:58:58;26.50;43.20
74657;DHT22;63185;45.642;13.764;2023-06-26T03:01:23;26.50;43.20
74657;DHT22;63185;45.642;13.764;2023-06-26T03:03:49;26.40;43.40
74657;DHT22;63185;45.642;13.764;2023-06-26T03:06:14;26.40;43.70
74657;DHT22;63185;45.642;13.764;2023-06-26T03:08:40;26.40;43.70
74657;DHT22;63185;45.642;13.764;2023-06-26T03:11:06;26.40;43.60
74657;DHT22;63185;45.642;13.764;2023-06-26T03:13:34;26.30;44.90
74657;DHT22;63185;45.642;13.764;2023-06-26T03:16:00;26.30;45.10
74657;DHT22;63185;45.642;13.764;2023-06-26T03:18:26;26.20;45.90
74657;DHT22;63185;45.642;13.764;2023-06-26T03:20:52;26.20;45.60
74657;DHT22;63185;45.642;13.764;2023-06-26T03:23:19;26.20;45.70
74657;DHT22;63185;45.642;13.764;2023-06-26T03:25:45;26.00;46.10
74657;DHT22;63185;45.642;13.764;2023-06-26T03:28:11;26.00;46.00
74657;DHT22;63185;45.642;13.764;2023-06-26T03:30:37;26.10;46.00
74657;DHT22;63185;45.642;13.764;2023-06-26T03:33:02;26.00;46.00
74657;DHT22;63185;45.642;13.764;2023-06-26T03:35:28;26.00;46.30
74657;DHT22;63185;45.642;13.764;2023-06-26T03:37:54;26.00;46.30
74657;DHT22;63185;45.642;13.764;2023-06-26T03:40:19;26.00;46.50
74657;DHT22;63185;45.642;13.764;2023-06-26T03:42:45;26.00;46.60
74657;DHT22;63185;45.642;13.764;2023-06-26T03:45:11;26.00;46.50
74657;DHT22;63185;45.642;13.764;2023-06-26T03:47:36;25.90;46.80
74657;DHT22;63185;45.642;13.764;2023-06-26T03:50:02;25.90;45.80
74657;DHT22;63185;45.642;13.764;2023-06-26T03:52:27;26.00;45.70
74657;DHT22;63185;45.642;13.764;2023-06-26T03:54:56;26.10;45.90
74657;DHT22;63185;45.642;13.764;2023-06-26T03:57:22;26.00;44.80
74657;DHT22;63185;45.642;13.764;2023-06-26T03:59:48;26.00;44.80
74657;DHT22;63185;45.642;13.764;2023-06-26T04:02:13;26.00;45.00
74657;DHT22;63185;45.642;13.764;2023-06-26T04:04:39;26.10;44.90
74657;DHT22;63185;45.642;13.764;2023-06-26T04:07:05;26.10;45.00
74657;DHT22;63185;45.642;13.764;2023-06-26T04:09:30;26.30;45.10
74657;DHT22;63185;45.642;13.764;2023-06-26T04:11:56;26.30;44.90
74657;DHT22;63185;45.642;13.764;2023-06-26T04:14:21;26.40;43.20
74657;DHT22;63185;45.642;13.764;2023-06-26T04:16:47;26.40;43.50
74657;DHT22;63185;45.642;13.764;2023-06-26T04:19:12;26.50;43.00
74657;DHT22;63185;45.642;13.764;2023-06-26T04:21:38;26.60;43.00
74657;DHT22;63185;45.642;13.764;2023-06-26T04:24:04;26.50;43.50
74657;DHT22;63185;45.642;13.764;2023-06-26T04:26:30;26.40;42.90
74657;DHT22;63185;45.642;13.764;2023-06-26T04:28:55;26.30;43.10
74657;DHT22;63185;45.642;13.764;2023-06-26T04:31:21;26.50;43.00
74657;DHT22;63185;45.642;13.764;2023-06-26T04:33:47;26.60;42.90
74657;DHT22;63185;45.642;13.764;2023-06-26T04:36:16;26.60;43.80
74657;DHT22;63185;45.642;13.764;2023-06-26T04:38:42;26.60;44.50
74657;DHT22;63185;45.642;13.764;2023-06-26T04:41:08;26.60;44.00
74657;DHT22;63185;45.642;13.764;2023-06-26T04:43:33;26.60;44.90
74657;DHT22;63185;45.642;13.764;2023-06-26T04:45:59;26.60;45.20
74657;DHT22;63185;45.642;13.764;2023-06-26T04:48:24;26.60;44.10
74657;DHT22;63185;45.642;13.764;2023-06-26T04:50:53;26.80;43.60
74657;DHT22;63185;45.642;13.764;2023-06-26T04:53:22;26.90;43.10
74657;DHT22;63185;45.642;13.764;2023-06-26T04:55:51;26.90;43.30
74657;DHT22;63185;45.642;13.764;2023-06-26T04:58:17;27.00;44.30
74657;DHT22;63185;45.642;13.764;2023-06-26T05:00:43;26.70;45.30
74657;DHT22;63185;45.642;13.764;2023-06-26T05:03:12;26.60;45.20
74657;DHT22;63185;45.642;13.764;2023-06-26T05:05:38;26.80;44.90
74657;DHT22;63185;45.642;13.764;2023-06-26T05:08:13;26.50;45.00
74657;DHT22;63185;45.642;13.764;2023-06-26T05:10:39;26.70;45.30
74657;DHT22;63185;45.642;13.764;2023-06-26T05:13:05;26.70;44.10
74657;DHT22;63185;45.642;13.764;2023-06-26T05:15:30;26.90;44.30
74657;DHT22;63185;45.642;13.764;2023-06-26T05:17:56;27.10;44.70
74657;DHT22;63185;45.642;13.764;2023-06-26T05:20:21;27.10;44.60
74657;DHT22;63185;45.642;13.764;2023-06-26T05:22:47;27.10;44.20
74657;DHT22;63185;45.642;13.764;2023-06-26T05:25:13;26.90;44.50
74657;DHT22;63185;45.642;13.764;2023-06-26T05:27:39;27.10;45.00
74657;DHT22;63185;45.642;13.764;2023-06-26T05:30:05;27.00;45.30
74657;DHT22;63185;45.642;13.764;2023-06-26T05:32:31;27.10;44.90
74657;DHT22;63185;45.642;13.764;2023-06-26T05:34:59;27.10;44.00
74657;DHT22;63185;45.642;13.764;2023-06-26T05:37:26;27.30;43.10
74657;DHT22;63185;45.642;13.764;2023-06-26T05:39:53;27.40;42.90
74657;DHT22;63185;45.642;13.764;2023-06-26T05:42:19;27.50;43.00
74657;DHT22;63185;45.642;13.764;2023-06-26T05:44:44;27.60;43.00
74657;DHT22;63185;45.642;13.764;2023-06-26T05:47:10;27.20;42.30
74657;DHT22;63185;45.642;13.764;2023-06-26T05:49:35;27.20;42.90
74657;DHT22;63185;45.642;13.764;2023-06-26T05:52:01;27.40;42.70
74657;DHT22;63185;45.642;13.764;2023-06-26T05:54:27;27.30;43.70
74657;DHT22;63185;45.642;13.764;2023-06-26T05:56:54;27.50;42.90
74657;DHT22;63185;45.642;13.764;2023-06-26T05:59:21;27.50;42.80
74657;DHT22;63185;45.642;13.764;2023-06-26T06:01:47;27.60;42.90
74657;DHT22;63185;45.642;13.764;2023-06-26T06:04:13;27.70;42.60
74657;DHT22;63185;45.642;13.764;2023-06-26T06:06:38;27.70;42.50
74657;DHT22;63185;45.642;13.764;2023-06-26T06:09:04;27.60;42.60
74657;DHT22;63185;45.642;13.764;2023-06-26T06:11:29;27.70;42.10
74657;DHT22;63185;45.642;13.764;2023-06-26T06:13:55;27.70;42.30
74657;DHT22;63185;45.642;13.764;2023-06-26T06:16:20;27.60;43.30
74657;DHT22;63185;45.642;13.764;2023-06-26T06:18:46;27.40;43.40
74657;DHT22;63185;45.642;13.764;2023-06-26T06:21:12;27.50;43.10
74657;DHT22;63185;45.642;13.764;2023-06-26T06:23:37;27.40;43.00
74657;DHT22;63185;45.642;13.764;2023-06-26T06:26:03;27.60;42.90
74657;DHT22;63185;45.642;13.764;2023-06-26T06:28:29;27.80;42.20
74657;DHT22;63185;45.642;13.764;2023-06-26T06:30:55;27.90;42.00
74657;DHT22;63185;45.642;13.764;2023-06-26T06:33:20;27.90;43.10
74657;DHT22;63185;45.642;13.764;2023-06-26T06:35:46;27.80;43.30
74657;DHT22;63185;45.642;13.764;2023-06-26T06:38:11;27.70;42.90
74657;DHT22;63185;45.642;13.764;2023-06-26T06:40:37;27.80;44.20
74657;DHT22;63185;45.642;13.764;2023-06-26T06:43:03;27.60;43.50
74657;DHT22;63185;45.642;13.764;2023-06-26T06:45:28;27.80;43.60
74657;DHT22;63185;45.642;13.764;2023-06-26T06:47:54;27.60;44.00
74657;DHT22;63185;45.642;13.764;2023-06-26T06:50:20;27.50;44.70
74657;DHT22;63185;45.642;13.764;2023-06-26T06:52:45;27.70;44.00
74657;DHT22;63185;45.642;13.764;2023-06-26T06:55:11;27.80;44.30
74657;DHT22;63185;45.642;13.764;2023-06-26T06:57:37;27.80;44.10
74657;DHT22;63185;45.642;13.764;2023-06-26T07:00:07;27.80;44.20
74657;DHT22;63185;45.642;13.764;2023-06-26T07:02:36;28.00;43.80
74657;DHT22;63185;45.642;13.764;2023-06-26T07:05:02;27.70;44.00
74657;DHT22;63185;45.642;13.764;2023-06-26T07:07:29;27.70;44.50
74657;DHT22;63185;45.642;13.764;2023-06-26T07:10:06;27.80;44.70
74657;DHT22;63185;45.642;13.764;2023-06-26T07:12:31;27.80;44.70
74657;DHT22;63185;45.642;13.764;2023-06-26T07:14:57;27.70;48.90
74657;DHT22;63185;45.642;13.764;2023-06-26T07:17:23;27.80;47.90
74657;DHT22;63185;45.642;13.764;2023-06-26T07:19:49;27.70;48.70
74657;DHT22;63185;45.642;13.764;2023-06-26T07:22:14;27.70;47.10
74657;DHT22;63185;45.642;13.764;2023-06-26T07:24:40;27.90;49.50
74657;DHT22;63185;45.642;13.764;2023-06-26T07:27:06;27.90;48.80
74657;DHT22;63185;45.642;13.764;2023-06-26T07:29:31;27.80;50.30
74657;DHT22;63185;45.642;13.764;2023-06-26T07:31:57;27.60;50.60
74657;DHT22;63185;45.642;13.764;2023-06-26T07:34:22;27.70;49.20
74657;DHT22;63185;45.642;13.764;2023-06-26T07:36:48;27.80;50.80
74657;DHT22;63185;45.642;13.764;2023-06-26T07:39:13;27.80;50.70
74657;DHT22;63185;45.642;13.764;2023-06-26T07:41:39;27.60;50.80
74657;DHT22;63185;45.642;13.764;2023-06-26T07:44:05;27.40;51.50
74657;DHT22;63185;45.642;13.764;2023-06-26T07:46:30;27.20;52.00
74657;DHT22;63185;45.642;13.764;2023-06-26T07:48:56;27.30;50.20
74657;DHT22;63185;45.642;13.764;2023-06-26T07:51:22;27.40;48.20
74657;DHT22;63185;45.642;13.764;2023-06-26T07:53:47;27.50;48.30
74657;DHT22;63185;45.642;13.764;2023-06-26T07:56:13;27.60;46.70
74657;DHT22;63185;45.642;13.764;2023-06-26T07:58:38;27.80;47.30
74657;DHT22;63185;45.642;13.764;2023-06-26T08:01:04;27.80;46.60
74657;DHT22;63185;45.642;13.764;2023-06-26T08:03:30;27.80;43.80
74657;DHT22;63185;45.642;13.764;2023-06-26T08:05:55;27.60;44.80
74657;DHT22;63185;45.642;13.764;2023-06-26T08:08:21;27.60;44.60
74657;DHT22;63185;45.642;13.764;2023-06-26T08:10:46;27.60;43.40
74657;DHT22;63185;45.642;13.764;2023-06-26T08:13:12;27.90;44.20
74657;DHT22;63185;45.642;13.764;2023-06-26T08:15:37;27.80;47.60
74657;DHT22;63185;45.642;13.764;2023-06-26T08:18:04;27.80;44.80
74657;DHT22;63185;45.642;13.764;2023-06-26T08:20:30;27.90;46.10
74657;DHT22;63185;45.642;13.764;2023-06-26T08:22:55;27.90;47.20
74657;DHT22;63185;45.642;13.764;2023-06-26T08:25:21;28.10;51.70
74657;DHT22;63185;45.642;13.764;2023-06-26T08:27:46;28.10;52.20
74657;DHT22;63185;45.642;13.764;2023-06-26T08:30:12;27.60;52.70
74657;DHT22;63185;45.642;13.764;2023-06-26T08:32:38;27.70;49.90
74657;DHT22;63185;45.642;13.764;2023-06-26T08:35:05;27.80;50.90
74657;DHT22;63185;45.642;13.764;2023-06-26T08:37:30;27.60;54.40
74657;DHT22;63185;45.642;13.764;2023-06-26T08:40:00;27.70;55.60
74657;DHT22;63185;45.642;13.764;2023-06-26T08:42:26;27.40;56.60
74657;DHT22;63185;45.642;13.764;2023-06-26T08:44:51;27.50;54.40
74657;DHT22;63185;45.642;13.764;2023-06-26T08:47:17;27.60;54.50
74657;DHT22;63185;45.642;13.764;2023-06-26T08:49:48;27.60;54.90
74657;DHT22;63185;45.642;13.764;2023-06-26T08:52:28;27.50;55.90
74657;DHT22;63185;45.642;13.764;2023-06-26T08:55:00;27.60;55.30
74657;DHT22;63185;45.642;13.764;2023-06-26T08:57:27;27.90;56.50
74657;DHT22;63185;45.642;13.764;2023-06-26T08:59:53;28.10;54.70
74657;DHT22;63185;45.642;13.764;2023-06-26T09:02:18;27.80;54.40
74657;DHT22;63185;45.642;13.764;2023-06-26T09:04:47;27.80;54.20
74657;DHT22;63185;45.642;13.764;2023-06-26T09:07:13;27.70;53.60
74657;DHT22;63185;45.642;13.764;2023-06-26T09:09:39;27.90;54.30
74657;DHT22;63185;45.642;13.764;2023-06-26T09:12:04;28.10;52.00
74657;DHT22;63185;45.642;13.764;2023-06-26T09:14:30;28.20;50.90
74657;DHT22;63185;45.642;13.764;2023-06-26T09:16:55;28.30;48.70
74657;DHT22;63185;45.642;13.764;2023-06-26T09:19:21;28.10;47.50
74657;DHT22;63185;45.642;13.764;2023-06-26T09:21:49;28.10;49.70
74657;DHT22;63185;45.642;13.764;2023-06-26T09:24:14;28.10;51.20
74657;DHT22;63185;45.642;13.764;2023-06-26T09:26:40;28.20;51.60
74657;DHT22;63185;45.642;13.764;2023-06-26T09:29:06;28.30;50.20
74657;DHT22;63185;45.642;13.764;2023-06-26T09:31:37;28.40;50.50
74657;DHT22;63185;45.642;13.764;2023-06-26T09:34:03;28.40;48.10
74657;DHT22;63185;45.642;13.764;2023-06-26T09:36:29;28.40;48.70
74657;DHT22;63185;45.642;13.764;2023-06-26T09:39:04;28.40;51.30
74657;DHT22;63185;45.642;13.764;2023-06-26T09:41:32;28.40;50.60
74657;DHT22;63185;45.642;13.764;2023-06-26T09:44:00;28.40;51.00
74657;DHT22;63185;45.642;13.764;2023-06-26T09:46:26;28.30;48.20
74657;DHT22;63185;45.642;13.764;2023-06-26T09:51:24;28.00;50.20
74657;DHT22;63185;45.642;13.764;2023-06-26T09:53:49;28.20;47.10
74657;DHT22;63185;45.642;13.764;2023-06-26T09:56:15;28.50;44.60
74657;DHT22;63185;45.642;13.764;2023-06-26T09:58:42;28.80;43.80
74657;DHT22;63185;45.642;13.764;2023-06-26T10:01:09;28.90;43.40
74657;DHT22;63185;45.642;13.764;2023-06-26T10:03:35;28.90;41.40
74657;DHT22;63185;45.642;13.764;2023-06-26T10:06:00;29.00;41.40
74657;DHT22;63185;45.642;13.764;2023-06-26T10:08:28;29.10;40.70
74657;DHT22;63185;45.642;13.764;2023-06-26T10:10:55;29.30;44.60
74657;DHT22;63185;45.642;13.764;2023-06-26T10:13:22;29.00;47.10
74657;DHT22;63185;45.642;13.764;2023-06-26T10:15:47;29.30;47.10
74657;DHT22;63185;45.642;13.764;2023-06-26T10:18:14;29.20;43.30
74657;DHT22;63185;45.642;13.764;2023-06-26T10:20:42;29.30;44.20
74657;DHT22;63185;45.642;13.764;2023-06-26T10:23:09;29.40;43.60
74657;DHT22;63185;45.642;13.764;2023-06-26T10:25:36;29.20;42.70
74657;DHT22;63185;45.642;13.764;2023-06-26T10:28:02;29.10;43.60
74657;DHT22;63185;45.642;13.764;2023-06-26T10:30:30;29.10;47.00
74657;DHT22;63185;45.642;13.764;2023-06-26T10:32:56;29.40;46.40
74657;DHT22;63185;45.642;13.764;2023-06-26T10:35:23;29.40;45.20
74657;DHT22;63185;45.642;13.764;2023-06-26T10:37:49;29.00;48.10
74657;DHT22;63185;45.642;13.764;2023-06-26T10:40:22;29.00;50.70
74657;DHT22;63185;45.642;13.764;2023-06-26T10:42:50;28.80;51.90
74657;DHT22;63185;45.642;13.764;2023-06-26T10:47:41;29.10;51.90
74657;DHT22;63185;45.642;13.764;2023-06-26T10:50:18;29.20;52.90
74657;DHT22;63185;45.642;13.764;2023-06-26T10:52:44;29.00;53.20
74657;DHT22;63185;45.642;13.764;2023-06-26T10:55:10;29.00;54.20
74657;DHT22;63185;45.642;13.764;2023-06-26T10:57:36;28.90;52.40
74657;DHT22;63185;45.642;13.764;2023-06-26T11:00:11;29.00;50.00
74657;DHT22;63185;45.642;13.764;2023-06-26T11:02:49;29.10;54.60
74657;DHT22;63185;45.642;13.764;2023-06-26T11:05:28;29.30;54.40
74657;DHT22;63185;45.642;13.764;2023-06-26T11:10:28;29.20;53.20
74657;DHT22;63185;45.642;13.764;2023-06-26T11:12:54;29.10;53.40
74657;DHT22;63185;45.642;13.764;2023-06-26T11:15:24;29.10;51.70
74657;DHT22;63185;45.642;13.764;2023-06-26T11:17:49;29.00;53.30
74657;DHT22;63185;45.642;13.764;2023-06-26T11:20:15;29.10;54.80
74657;DHT22;63185;45.642;13.764;2023-06-26T11:22:41;29.10;54.20
74657;DHT22;63185;45.642;13.764;2023-06-26T11:25:07;29.00;53.20
74657;DHT22;63185;45.642;13.764;2023-06-26T11:29:59;29.20;51.30
74657;DHT22;63185;45.642;13.764;2023-06-26T11:32:26;29.20;51.10
74657;DHT22;63185;45.642;13.764;2023-06-26T11:34:52;29.10;52.30
74657;DHT22;63185;45.642;13.764;2023-06-26T11:37:17;29.10;52.50
74657;DHT22;63185;45.642;13.764;2023-06-26T11:39:43;29.30;50.00
74657;DHT22;63185;45.642;13.764;2023-06-26T11:42:10;29.30;45.70
74657;DHT22;63185;45.642;13.764;2023-06-26T11:44:45;29.50;48.80
74657;DHT22;63185;45.642;13.764;2023-06-26T11:49:41;29.30;52.40
74657;DHT22;63185;45.642;13.764;2023-06-26T11:52:07;29.20;54.90
74657;DHT22;63185;45.642;13.764;2023-06-26T11:54:33;29.30;55.80
74657;DHT22;63185;45.642;13.764;2023-06-26T11:56:58;29.00;56.10
74657;DHT22;63185;45.642;13.764;2023-06-26T11:59:31;28.80;55.40
74657;DHT22;63185;45.642;13.764;2023-06-26T12:01:56;28.80;56.20
74657;DHT22;63185;45.642;13.764;2023-06-26T12:04:22;29.00;57.20
74657;DHT22;63185;45.642;13.764;2023-06-26T12:06:49;29.10;55.50
74657;DHT22;63185;45.642;13.764;2023-06-26T12:09:16;29.10;55.10
74657;DHT22;63185;45.642;13.764;2023-06-26T12:11:42;29.20;56.50
74657;DHT22;63185;45.642;13.764;2023-06-26T12:14:09;29.40;56.90
74657;DHT22;63185;45.642;13.764;2023-06-26T12:16:35;29.30;57.40
74657;DHT22;63185;45.642;13.764;2023-06-26T12:19:01;29.60;56.20
74657;DHT22;63185;45.642;13.764;2023-06-26T12:21:28;29.60;50.10
74657;DHT22;63185;45.642;13.764;2023-06-26T12:24:00;29.60;48.70
74657;DHT22;63185;45.642;13.764;2023-06-26T12:26:26;29.30;50.00
74657;DHT22;63185;45.642;13.764;2023-06-26T12:28:52;29.60;51.10
74657;DHT22;63185;45.642;13.764;2023-06-26T12:31:20;29.50;45.90
74657;DHT22;63185;45.642;13.764;2023-06-26T12:33:45;29.40;46.60
74657;DHT22;63185;45.642;13.764;2023-06-26T12:36:11;29.20;46.60
74657;DHT22;63185;45.642;13.764;2023-06-26T12:38:37;29.20;50.10
74657;DHT22;63185;45.642;13.764;2023-06-26T12:41:03;29.20;50.20
74657;DHT22;63185;45.642;13.764;2023-06-26T12:43:28;29.40;51.30
74657;DHT22;63185;45.642;13.764;2023-06-26T12:45:54;29.80;49.20
74657;DHT22;63185;45.642;13.764;2023-06-26T12:48:21;29.50;48.00
74657;DHT22;63185;45.642;13.764;2023-06-26T12:50:46;29.10;50.60
74657;DHT22;63185;45.642;13.764;2023-06-26T12:53:13;29.50;50.30
74657;DHT22;63185;45.642;13.764;2023-06-26T12:55:38;29.80;47.20
74657;DHT22;63185;45.642;13.764;2023-06-26T12:58:04;30.00;46.40
74657;DHT22;63185;45.642;13.764;2023-06-26T13:00:30;30.20;48.10
74657;DHT22;63185;45.642;13.764;2023-06-26T13:02:57;30.10;49.40
74657;DHT22;63185;45.642;13.764;2023-06-26T13:05:23;30.30;48.70
74657;DHT22;63185;45.642;13.764;2023-06-26T13:07:49;30.50;46.60
74657;DHT22;63185;45.642;13.764;2023-06-26T13:10:15;29.80;44.40
74657;DHT22;63185;45.642;13.764;2023-06-26T13:12:40;29.60;46.00
74657;DHT22;63185;45.642;13.764;2023-06-26T13:15:06;29.70;45.60
74657;DHT22;63185;45.642;13.764;2023-06-26T13:17:32;29.60;42.30
74657;DHT22;63185;45.642;13.764;2023-06-26T13:19:58;29.80;45.70
74657;DHT22;63185;45.642;13.764;2023-06-26T13:22:23;30.10;44.40
74657;DHT22;63185;45.642;13.764;2023-06-26T13:24:49;30.10;45.50
74657;DHT22;63185;45.642;13.764;2023-06-26T13:27:14;30.00;45.40
74657;DHT22;63185;45.642;13.764;2023-06-26T13:29:41;29.40;46.40
74657;DHT22;63185;45.642;13.764;2023-06-26T13:32:07;29.50;47.90
74657;DHT22;63185;45.642;13.764;2023-06-26T13:34:33;29.30;47.70
74657;DHT22;63185;45.642;13.764;2023-06-26T13:36:58;29.40;47.90
74657;DHT22;63185;45.642;13.764;2023-06-26T13:39:25;29.70;47.30
74657;DHT22;63185;45.642;13.764;2023-06-26T13:41:53;29.70;46.20
74657;DHT22;63185;45.642;13.764;2023-06-26T13:44:19;29.70;46.50
74657;DHT22;63185;45.642;13.764;2023-06-26T13:46:44;29.80;45.90
74657;DHT22;63185;45.642;13.764;2023-06-26T13:49:10;30.10;46.50
74657;DHT22;63185;45.642;13.764;2023-06-26T13:51:36;30.20;45.00
74657;DHT22;63185;45.642;13.764;2023-06-26T13:54:01;30.10;44.40
74657;DHT22;63185;45.642;13.764;2023-06-26T13:56:27;30.20;45.30
74657;DHT22;63185;45.642;13.764;2023-06-26T13:58:55;30.30;44.60
74657;DHT22;63185;45.642;13.764;2023-06-26T14:01:21;30.20;47.80
74657;DHT22;63185;45.642;13.764;2023-06-26T14:03:47;30.70;46.90
74657;DHT22;63185;45.642;13.764;2023-06-26T14:06:12;30.50;46.00
74657;DHT22;63185;45.642;13.764;2023-06-26T14:08:38;30.60;44.00
74657;DHT22;63185;45.642;13.764;2023-06-26T14:11:03;30.90;45.20
74657;DHT22;63185;45.642;13.764;2023-06-26T14:13:29;31.30;47.90
74657;DHT22;63185;45.642;13.764;2023-06-26T14:15:54;31.20;46.60
74657;DHT22;63185;45.642;13.764;2023-06-26T14:18:21;30.90;43.80
74657;DHT22;63185;45.642;13.764;2023-06-26T14:20:48;30.60;43.60
74657;DHT22;63185;45.642;13.764;2023-06-26T14:23:14;30.70;44.60
74657;DHT22;63185;45.642;13.764;2023-06-26T14:25:40;30.80;43.60
74657;DHT22;63185;45.642;13.764;2023-06-26T14:28:05;31.20;42.20
74657;DHT22;63185;45.642;13.764;2023-06-26T14:30:31;31.10;40.70
74657;DHT22;63185;45.642;13.764;2023-06-26T14:32:56;31.30;41.20
74657;DHT22;63185;45.642;13.764;2023-06-26T14:35:22;31.30;43.20
74657;DHT22;63185;45.642;13.764;2023-06-26T14:37:48;31.80;43.90
74657;DHT22;63185;45.642;13.764;2023-06-26T14:40:13;32.00;42.80
74657;DHT22;63185;45.642;13.764;2023-06-26T14:42:39;32.00;43.50
74657;DHT22;63185;45.642;13.764;2023-06-26T14:45:05;32.10;42.70
74657;DHT22;63185;45.642;13.764;2023-06-26T14:47:30;32.20;43.10
74657;DHT22;63185;45.642;13.764;2023-06-26T14:49:56;32.20;43.30
74657;DHT22;63185;45.642;13.764;2023-06-26T14:52:25;31.90;41.90
74657;DHT22;63185;45.642;13.764;2023-06-26T14:54:50;31.80;42.70
74657;DHT22;63185;45.642;13.764;2023-06-26T14:57:16;31.50;41.60
74657;DHT22;63185;45.642;13.764;2023-06-26T14:59:42;31.40;42.40
74657;DHT22;63185;45.642;13.764;2023-06-26T15:02:07;31.90;42.40
74657;DHT22;63185;45.642;13.764;2023-06-26T15:04:33;32.20;42.60
74657;DHT22;63185;45.642;13.764;2023-06-26T15:06:58;32.10;40.90
74657;DHT22;63185;45.642;13.764;2023-06-26T15:09:24;32.10;42.20
74657;DHT22;63185;45.642;13.764;2023-06-26T15:11:50;31.60;40.70
74657;DHT22;63185;45.642;13.764;2023-06-26T15:14:15;31.60;42.60
74657;DHT22;63185;45.642;13.764;2023-06-26T15:16:41;31.80;42.00
74657;DHT22;63185;45.642;13.764;2023-06-26T15:19:06;31.50;40.90
74657;DHT22;63185;45.642;13.764;2023-06-26T15:21:33;31.40;41.90
74657;DHT22;63185;45.642;13.764;2023-06-26T15:23:59;32.00;40.90